JST718 YMHB-YSSY
Flight info
| Callsign | JST718 |
|---|---|
| Flight time | 1h 37m |
| Altitude | 38000 |
| Route | TASUM H111 LT W218 VIMAP/N0441F390 Y327 MAKRL/N0440F380 J163 CB/N0440F390 W423 CULIN Y59 RIVET |
| Aircraft | A20N/M-SDE2E3FGHIRWXY/LB1 |
Departure
| Time | 2026-04-26 11:10 |
|---|---|
| Airport | Hobart International Airport (YMHB) |
Arrival
| Time | 2026-04-26 12:47 |
|---|---|
| Airport | Sydney Kingsford Smith International Airport (YSSY) |
| Time | Latitude | Longitude | Altitude | Speed | Heading |
|---|---|---|---|---|---|
| 2026-04-26 10:55 | -42.83685 | 147.50622 | 22 ft | 0 kts | 226° |
| 2026-04-26 11:02 | -42.83684 | 147.50622 | 22 ft | 0 kts | 226° |
| 2026-04-26 11:02 | -42.83684 | 147.50623 | 22 ft | 1 kts | 226° |
| 2026-04-26 11:02 | -42.83671 | 147.50641 | 22 ft | 3 kts | 226° |
| 2026-04-26 11:02 | -42.83658 | 147.50659 | 23 ft | 3 kts | 238° |
| 2026-04-26 11:03 | -42.83655 | 147.50682 | 23 ft | 3 kts | 311° |
| 2026-04-26 11:03 | -42.83667 | 147.50698 | 24 ft | 1 kts | 319° |
| 2026-04-26 11:03 | -42.83668 | 147.50699 | 24 ft | 0 kts | 319° |
| 2026-04-26 11:07 | -42.83662 | 147.50692 | 25 ft | 4 kts | 321° |
| 2026-04-26 11:07 | -42.83631 | 147.50660 | 24 ft | 7 kts | 326° |
| 2026-04-26 11:07 | -42.83583 | 147.50677 | 23 ft | 8 kts | 33° |
| 2026-04-26 11:08 | -42.83522 | 147.50680 | 23 ft | 10 kts | 330° |
| 2026-04-26 11:08 | -42.83468 | 147.50609 | 22 ft | 12 kts | 313° |
| 2026-04-26 11:08 | -42.83398 | 147.50550 | 22 ft | 13 kts | 0° |
| 2026-04-26 11:08 | -42.83343 | 147.50608 | 24 ft | 11 kts | 46° |
| 2026-04-26 11:09 | -42.83293 | 147.50689 | 22 ft | 11 kts | 66° |
| 2026-04-26 11:09 | -42.83320 | 147.50778 | 22 ft | 9 kts | 135° |
| 2026-04-26 11:09 | -42.83449 | 147.50954 | 24 ft | 66 kts | 135° |
| 2026-04-26 11:09 | -42.83987 | 147.51684 | 27 ft | 147 kts | 134° |
| 2026-04-26 11:10 | -42.84741 | 147.52729 | 727 ft | 155 kts | 133° |
| 2026-04-26 11:10 | -42.85507 | 147.53773 | 1629 ft | 156 kts | 137° |
| 2026-04-26 11:10 | -42.86303 | 147.54844 | 2349 ft | 165 kts | 138° |
| 2026-04-26 11:10 | -42.87131 | 147.55966 | 3095 ft | 170 kts | 139° |
| 2026-04-26 11:11 | -42.87985 | 147.57122 | 3782 ft | 175 kts | 138° |
| 2026-04-26 11:11 | -42.88659 | 147.58549 | 4411 ft | 188 kts | 105° |
| 2026-04-26 11:11 | -42.88605 | 147.60377 | 4822 ft | 202 kts | 59° |
| 2026-04-26 11:11 | -42.87701 | 147.61781 | 5416 ft | 198 kts | 29° |
| 2026-04-26 11:12 | -42.86599 | 147.62877 | 6126 ft | 200 kts | 27° |
| 2026-04-26 11:12 | -42.85460 | 147.64000 | 6867 ft | 201 kts | 26° |
| 2026-04-26 11:12 | -42.84272 | 147.64978 | 7573 ft | 195 kts | 8° |
| 2026-04-26 11:12 | -42.82982 | 147.65155 | 8291 ft | 182 kts | 343° |
| 2026-04-26 11:13 | -42.81820 | 147.64673 | 9043 ft | 176 kts | 332° |
| 2026-04-26 11:13 | -42.80678 | 147.64083 | 9836 ft | 176 kts | 331° |
| 2026-04-26 11:13 | -42.79477 | 147.63459 | 10261 ft | 198 kts | 331° |
| 2026-04-26 11:13 | -42.78106 | 147.62743 | 10715 ft | 223 kts | 332° |
| 2026-04-26 11:14 | -42.76574 | 147.61958 | 11175 ft | 247 kts | 333° |
| 2026-04-26 11:14 | -42.74883 | 147.61095 | 11582 ft | 271 kts | 334° |
| 2026-04-26 11:14 | -42.73047 | 147.60161 | 12118 ft | 289 kts | 334° |
| 2026-04-26 11:14 | -42.71787 | 147.59526 | 12654 ft | 294 kts | 334° |
| 2026-04-26 11:15 | -42.69307 | 147.57937 | 13805 ft | 296 kts | 322° |
| 2026-04-26 11:15 | -42.67692 | 147.56185 | 14598 ft | 298 kts | 316° |
| 2026-04-26 11:15 | -42.66091 | 147.54347 | 15365 ft | 304 kts | 317° |
| 2026-04-26 11:15 | -42.64463 | 147.52487 | 16124 ft | 308 kts | 317° |
| 2026-04-26 11:16 | -42.62805 | 147.50601 | 16877 ft | 314 kts | 317° |
| 2026-04-26 11:16 | -42.61115 | 147.48684 | 17624 ft | 320 kts | 317° |
| 2026-04-26 11:16 | -42.59395 | 147.46733 | 18368 ft | 325 kts | 317° |
| 2026-04-26 11:16 | -42.57706 | 147.44733 | 19030 ft | 329 kts | 315° |
| 2026-04-26 11:17 | -42.55998 | 147.42649 | 19735 ft | 332 kts | 315° |
| 2026-04-26 11:17 | -42.54253 | 147.40576 | 20461 ft | 335 kts | 317° |
| 2026-04-26 11:17 | -42.52343 | 147.38742 | 21162 ft | 341 kts | 328° |
| 2026-04-26 11:17 | -42.50112 | 147.37549 | 21859 ft | 351 kts | 341° |
| 2026-04-26 11:18 | -42.47650 | 147.37130 | 22521 ft | 364 kts | 355° |
| 2026-04-26 11:18 | -42.45089 | 147.37477 | 23170 ft | 373 kts | 2° |
| 2026-04-26 11:18 | -42.42509 | 147.37975 | 23852 ft | 376 kts | 2° |
| 2026-04-26 11:18 | -42.39910 | 147.38466 | 24427 ft | 379 kts | 2° |
| 2026-04-26 11:19 | -42.37292 | 147.38960 | 25014 ft | 381 kts | 2° |
| 2026-04-26 11:19 | -42.34655 | 147.39459 | 25574 ft | 384 kts | 1° |
| 2026-04-26 11:19 | -42.32007 | 147.39653 | 26109 ft | 380 kts | 352° |
| 2026-04-26 11:19 | -42.29391 | 147.39235 | 26647 ft | 379 kts | 345° |
| 2026-04-26 11:20 | -42.26787 | 147.38601 | 27138 ft | 381 kts | 345° |
| 2026-04-26 11:20 | -42.25061 | 147.38171 | 27473 ft | 383 kts | 346° |
| 2026-04-26 11:20 | -42.21531 | 147.37321 | 28137 ft | 387 kts | 346° |
| 2026-04-26 11:20 | -42.18873 | 147.36690 | 28622 ft | 389 kts | 346° |
| 2026-04-26 11:21 | -42.16200 | 147.36048 | 29095 ft | 392 kts | 346° |
| 2026-04-26 11:21 | -42.13538 | 147.35397 | 29543 ft | 394 kts | 346° |
| 2026-04-26 11:21 | -42.10801 | 147.34742 | 29978 ft | 397 kts | 346° |
| 2026-04-26 11:21 | -42.08080 | 147.34092 | 30373 ft | 399 kts | 346° |
| 2026-04-26 11:22 | -42.05376 | 147.33434 | 30719 ft | 401 kts | 346° |
| 2026-04-26 11:22 | -42.02617 | 147.32781 | 31055 ft | 404 kts | 346° |
| 2026-04-26 11:22 | -41.99841 | 147.32124 | 31403 ft | 406 kts | 346° |
| 2026-04-26 11:22 | -41.97058 | 147.31455 | 31713 ft | 408 kts | 346° |
| 2026-04-26 11:23 | -41.94246 | 147.30777 | 32021 ft | 411 kts | 346° |
| 2026-04-26 11:23 | -41.91417 | 147.30103 | 32326 ft | 413 kts | 347° |
| 2026-04-26 11:23 | -41.88578 | 147.29439 | 32644 ft | 415 kts | 346° |
| 2026-04-26 11:23 | -41.85728 | 147.28761 | 32929 ft | 417 kts | 346° |
| 2026-04-26 11:24 | -41.82864 | 147.28070 | 33211 ft | 419 kts | 346° |
| 2026-04-26 11:24 | -41.79985 | 147.27386 | 33489 ft | 421 kts | 346° |
| 2026-04-26 11:24 | -41.77097 | 147.26703 | 33763 ft | 423 kts | 346° |
| 2026-04-26 11:24 | -41.74202 | 147.26011 | 34101 ft | 422 kts | 346° |
| 2026-04-26 11:25 | -41.71313 | 147.25322 | 34431 ft | 422 kts | 346° |
| 2026-04-26 11:25 | -41.68413 | 147.24639 | 34644 ft | 424 kts | 346° |
| 2026-04-26 11:25 | -41.65510 | 147.23954 | 34909 ft | 424 kts | 346° |
| 2026-04-26 11:25 | -41.62605 | 147.23266 | 35190 ft | 424 kts | 346° |
| 2026-04-26 11:26 | -41.59696 | 147.22590 | 35465 ft | 424 kts | 346° |
| 2026-04-26 11:26 | -41.57776 | 147.22141 | 35663 ft | 423 kts | 346° |
| 2026-04-26 11:26 | -41.53882 | 147.21351 | 36038 ft | 425 kts | 353° |
| 2026-04-26 11:26 | -41.50912 | 147.21263 | 36306 ft | 427 kts | 355° |
| 2026-04-26 11:27 | -41.48949 | 147.21237 | 36478 ft | 427 kts | 355° |
| 2026-04-26 11:27 | -41.45980 | 147.21186 | 36756 ft | 427 kts | 355° |
| 2026-04-26 11:27 | -41.42047 | 147.21130 | 37108 ft | 427 kts | 355° |
| 2026-04-26 11:27 | -41.39082 | 147.21079 | 37334 ft | 427 kts | 355° |
| 2026-04-26 11:28 | -41.37068 | 147.21042 | 37461 ft | 428 kts | 355° |
| 2026-04-26 11:28 | -41.34091 | 147.20988 | 37684 ft | 428 kts | 355° |
| 2026-04-26 11:28 | -41.31108 | 147.20932 | 37916 ft | 428 kts | 355° |
| 2026-04-26 11:28 | -41.27162 | 147.20863 | 38165 ft | 430 kts | 355° |
| 2026-04-26 11:29 | -41.22201 | 147.21387 | 38284 ft | 436 kts | 11° |
| 2026-04-26 11:29 | -41.19275 | 147.22472 | 38490 ft | 437 kts | 11° |
| 2026-04-26 11:29 | -41.16337 | 147.23555 | 38642 ft | 439 kts | 11° |
| 2026-04-26 11:30 | -41.13391 | 147.24627 | 38836 ft | 439 kts | 11° |
| 2026-04-26 11:30 | -41.10448 | 147.25701 | 39009 ft | 439 kts | 11° |
| 2026-04-26 11:30 | -41.07495 | 147.26774 | 39134 ft | 440 kts | 11° |
| 2026-04-26 11:30 | -41.04535 | 147.27854 | 39178 ft | 441 kts | 11° |
| 2026-04-26 11:31 | -40.98601 | 147.29997 | 39197 ft | 443 kts | 11° |
| 2026-04-26 11:31 | -40.92641 | 147.32137 | 39197 ft | 444 kts | 11° |
| 2026-04-26 11:32 | -40.86683 | 147.34292 | 39196 ft | 444 kts | 11° |
| 2026-04-26 11:32 | -40.80758 | 147.36420 | 39197 ft | 445 kts | 11° |
| 2026-04-26 11:33 | -40.74779 | 147.38557 | 39195 ft | 445 kts | 11° |
| 2026-04-26 11:33 | -40.68794 | 147.40703 | 39198 ft | 446 kts | 12° |
| 2026-04-26 11:34 | -40.62803 | 147.42848 | 39187 ft | 446 kts | 12° |
| 2026-04-26 11:34 | -40.56812 | 147.44986 | 39187 ft | 446 kts | 12° |
| 2026-04-26 11:35 | -40.50808 | 147.47109 | 39185 ft | 447 kts | 11° |
| 2026-04-26 11:35 | -40.44798 | 147.49247 | 39185 ft | 448 kts | 12° |
| 2026-04-26 11:36 | -40.38775 | 147.51391 | 39189 ft | 448 kts | 12° |
| 2026-04-26 11:36 | -40.32749 | 147.53525 | 39187 ft | 449 kts | 12° |
| 2026-04-26 11:37 | -40.26752 | 147.55648 | 39200 ft | 450 kts | 12° |
| 2026-04-26 11:37 | -40.20709 | 147.57785 | 39190 ft | 450 kts | 12° |
| 2026-04-26 11:38 | -40.14659 | 147.59892 | 39187 ft | 450 kts | 12° |
| 2026-04-26 11:38 | -40.08607 | 147.62019 | 39191 ft | 451 kts | 12° |
| 2026-04-26 11:39 | -40.02547 | 147.64163 | 39206 ft | 451 kts | 12° |
| 2026-04-26 11:39 | -39.96475 | 147.66287 | 39215 ft | 452 kts | 12° |
| 2026-04-26 11:40 | -39.90405 | 147.68412 | 39213 ft | 452 kts | 12° |
| 2026-04-26 11:40 | -39.84337 | 147.70530 | 39216 ft | 452 kts | 12° |
| 2026-04-26 11:42 | -39.60080 | 147.78940 | 39203 ft | 452 kts | 12° |
| 2026-04-26 11:43 | -39.53994 | 147.81052 | 39201 ft | 453 kts | 12° |
| 2026-04-26 11:43 | -39.47909 | 147.83145 | 39187 ft | 453 kts | 12° |
| 2026-04-26 11:44 | -39.41818 | 147.85231 | 39189 ft | 453 kts | 12° |
| 2026-04-26 11:44 | -39.35722 | 147.87332 | 39192 ft | 454 kts | 12° |
| 2026-04-26 11:45 | -39.29658 | 147.89426 | 39193 ft | 454 kts | 12° |
| 2026-04-26 11:45 | -39.23551 | 147.91519 | 39196 ft | 454 kts | 12° |
| 2026-04-26 11:46 | -39.17429 | 147.93608 | 39206 ft | 455 kts | 12° |
| 2026-04-26 11:46 | -39.11312 | 147.95695 | 39196 ft | 455 kts | 12° |
| 2026-04-26 11:47 | -39.05175 | 147.97772 | 39201 ft | 456 kts | 12° |
| 2026-04-26 11:47 | -38.99041 | 147.99871 | 39208 ft | 456 kts | 12° |
| 2026-04-26 11:48 | -38.92894 | 148.01945 | 39208 ft | 457 kts | 12° |
| 2026-04-26 11:48 | -38.86747 | 148.04044 | 39213 ft | 457 kts | 12° |
| 2026-04-26 11:49 | -38.80593 | 148.06132 | 39212 ft | 458 kts | 12° |
| 2026-04-26 11:49 | -38.74437 | 148.08202 | 39208 ft | 458 kts | 12° |
| 2026-04-26 11:50 | -38.68317 | 148.10270 | 39207 ft | 458 kts | 12° |
| 2026-04-26 11:50 | -38.62151 | 148.12343 | 39217 ft | 458 kts | 12° |
| 2026-04-26 11:51 | -38.55977 | 148.14408 | 39219 ft | 459 kts | 13° |
| 2026-04-26 11:51 | -38.49798 | 148.16489 | 39223 ft | 459 kts | 13° |
| 2026-04-26 11:52 | -38.43616 | 148.18564 | 39232 ft | 459 kts | 13° |
| 2026-04-26 11:52 | -38.37430 | 148.20626 | 39225 ft | 460 kts | 13° |
| 2026-04-26 11:53 | -38.31239 | 148.22683 | 39231 ft | 460 kts | 13° |
| 2026-04-26 11:54 | -38.21992 | 148.25761 | 39235 ft | 460 kts | 13° |
| 2026-04-26 11:54 | -38.15802 | 148.27812 | 39229 ft | 460 kts | 13° |
| 2026-04-26 11:55 | -38.09611 | 148.29874 | 39232 ft | 460 kts | 13° |
| 2026-04-26 11:55 | -38.03421 | 148.31924 | 39229 ft | 460 kts | 13° |
| 2026-04-26 11:56 | -37.97223 | 148.33959 | 39238 ft | 460 kts | 13° |
| 2026-04-26 11:56 | -37.91034 | 148.36004 | 39238 ft | 459 kts | 13° |
| 2026-04-26 11:57 | -37.84850 | 148.38040 | 39235 ft | 459 kts | 13° |
| 2026-04-26 11:57 | -37.78659 | 148.40065 | 39241 ft | 459 kts | 13° |
| 2026-04-26 11:58 | -37.72515 | 148.42082 | 39247 ft | 459 kts | 13° |
| 2026-04-26 11:58 | -37.66337 | 148.44122 | 39241 ft | 459 kts | 13° |
| 2026-04-26 11:59 | -37.60143 | 148.46141 | 39251 ft | 460 kts | 13° |
| 2026-04-26 11:59 | -37.53949 | 148.48165 | 39256 ft | 460 kts | 13° |
| 2026-04-26 12:00 | -37.47756 | 148.50181 | 39271 ft | 459 kts | 12° |
| 2026-04-26 12:00 | -37.41566 | 148.52190 | 39288 ft | 459 kts | 12° |
| 2026-04-26 12:01 | -37.35382 | 148.54193 | 39302 ft | 459 kts | 12° |
| 2026-04-26 12:01 | -37.29199 | 148.56200 | 39301 ft | 459 kts | 12° |
| 2026-04-26 12:02 | -37.23062 | 148.58190 | 39310 ft | 458 kts | 12° |
| 2026-04-26 12:02 | -37.16882 | 148.60179 | 39306 ft | 458 kts | 12° |
| 2026-04-26 12:03 | -37.10707 | 148.62182 | 39307 ft | 458 kts | 12° |
| 2026-04-26 12:03 | -37.04529 | 148.64159 | 39330 ft | 458 kts | 12° |
| 2026-04-26 12:04 | -36.98365 | 148.66145 | 39346 ft | 457 kts | 12° |
| 2026-04-26 12:04 | -36.92202 | 148.68123 | 39347 ft | 457 kts | 12° |
| 2026-04-26 12:05 | -36.86042 | 148.70089 | 39347 ft | 457 kts | 12° |
| 2026-04-26 12:05 | -36.79929 | 148.72047 | 39353 ft | 457 kts | 12° |
| 2026-04-26 12:06 | -36.73775 | 148.73999 | 39357 ft | 456 kts | 12° |
| 2026-04-26 12:06 | -36.67626 | 148.75971 | 39374 ft | 456 kts | 12° |
| 2026-04-26 12:07 | -36.61497 | 148.77932 | 39387 ft | 454 kts | 12° |
| 2026-04-26 12:07 | -36.55383 | 148.79877 | 39387 ft | 453 kts | 12° |
| 2026-04-26 12:08 | -36.49287 | 148.81797 | 39386 ft | 452 kts | 12° |
| 2026-04-26 12:08 | -36.43199 | 148.83726 | 39385 ft | 451 kts | 12° |
| 2026-04-26 12:09 | -36.37154 | 148.85632 | 39388 ft | 451 kts | 12° |
| 2026-04-26 12:09 | -36.31080 | 148.87546 | 39390 ft | 451 kts | 12° |
| 2026-04-26 12:10 | -36.25008 | 148.89458 | 39389 ft | 450 kts | 12° |
| 2026-04-26 12:10 | -36.18928 | 148.91380 | 39389 ft | 450 kts | 12° |
| 2026-04-26 12:11 | -36.12853 | 148.93274 | 39384 ft | 450 kts | 12° |
| 2026-04-26 12:11 | -36.06779 | 148.95190 | 39385 ft | 450 kts | 12° |
| 2026-04-26 12:12 | -36.00713 | 148.97085 | 39388 ft | 450 kts | 12° |
| 2026-04-26 12:12 | -35.94640 | 148.98987 | 39382 ft | 450 kts | 12° |
| 2026-04-26 12:13 | -35.88573 | 149.00892 | 39377 ft | 450 kts | 12° |
| 2026-04-26 12:13 | -35.82537 | 149.02767 | 39369 ft | 450 kts | 12° |
| 2026-04-26 12:14 | -35.76462 | 149.04652 | 39357 ft | 450 kts | 13° |
| 2026-04-26 12:14 | -35.70390 | 149.06542 | 39356 ft | 450 kts | 12° |
| 2026-04-26 12:15 | -35.64315 | 149.08422 | 39350 ft | 450 kts | 12° |
| 2026-04-26 12:15 | -35.58242 | 149.10301 | 39341 ft | 450 kts | 12° |
| 2026-04-26 12:16 | -35.52168 | 149.12174 | 39332 ft | 450 kts | 12° |
| 2026-04-26 12:16 | -35.46093 | 149.14056 | 39330 ft | 450 kts | 13° |
| 2026-04-26 12:17 | -35.40013 | 149.15932 | 39327 ft | 450 kts | 12° |
| 2026-04-26 12:17 | -35.33975 | 149.17797 | 39326 ft | 450 kts | 13° |
| 2026-04-26 12:18 | -35.27895 | 149.19664 | 39324 ft | 451 kts | 13° |
| 2026-04-26 12:18 | -35.21876 | 149.21836 | 39324 ft | 451 kts | 15° |
| 2026-04-26 12:19 | -35.15855 | 149.24015 | 39319 ft | 451 kts | 15° |
| 2026-04-26 12:19 | -35.09829 | 149.26181 | 39311 ft | 451 kts | 15° |
| 2026-04-26 12:20 | -35.03801 | 149.28342 | 39307 ft | 451 kts | 15° |
| 2026-04-26 12:20 | -34.97767 | 149.30507 | 39308 ft | 451 kts | 15° |
| 2026-04-26 12:21 | -34.91743 | 149.32669 | 39307 ft | 451 kts | 15° |
| 2026-04-26 12:21 | -34.85756 | 149.34818 | 39305 ft | 451 kts | 15° |
| 2026-04-26 12:22 | -34.79757 | 149.37063 | 39301 ft | 452 kts | 21° |
| 2026-04-26 12:22 | -34.74416 | 149.41024 | 39065 ft | 452 kts | 42° |
| 2026-04-26 12:22 | -34.72256 | 149.43779 | 38716 ft | 449 kts | 52° |
| 2026-04-26 12:23 | -34.70513 | 149.46937 | 37931 ft | 451 kts | 62° |
| 2026-04-26 12:23 | -34.69054 | 149.50310 | 37276 ft | 451 kts | 63° |
| 2026-04-26 12:23 | -34.67606 | 149.53695 | 36565 ft | 452 kts | 63° |
| 2026-04-26 12:23 | -34.66134 | 149.57069 | 35851 ft | 453 kts | 63° |
| 2026-04-26 12:24 | -34.64649 | 149.60448 | 35123 ft | 454 kts | 63° |
| 2026-04-26 12:24 | -34.63161 | 149.63846 | 34381 ft | 456 kts | 63° |
| 2026-04-26 12:24 | -34.61670 | 149.67248 | 33524 ft | 457 kts | 63° |
| 2026-04-26 12:25 | -34.58710 | 149.74007 | 31938 ft | 457 kts | 63° |
| 2026-04-26 12:25 | -34.57211 | 149.77409 | 31090 ft | 458 kts | 63° |
| 2026-04-26 12:25 | -34.55708 | 149.80826 | 30175 ft | 459 kts | 63° |
| 2026-04-26 12:25 | -34.54200 | 149.84254 | 29186 ft | 460 kts | 63° |
| 2026-04-26 12:26 | -34.52701 | 149.87661 | 28341 ft | 457 kts | 62° |
| 2026-04-26 12:26 | -34.51213 | 149.91044 | 27707 ft | 451 kts | 62° |
| 2026-04-26 12:26 | -34.49742 | 149.94376 | 27031 ft | 446 kts | 62° |
| 2026-04-26 12:26 | -34.48281 | 149.97673 | 26363 ft | 442 kts | 62° |
| 2026-04-26 12:27 | -34.46834 | 150.00936 | 25698 ft | 438 kts | 62° |
| 2026-04-26 12:27 | -34.45883 | 150.03085 | 25242 ft | 436 kts | 62° |
| 2026-04-26 12:27 | -34.43974 | 150.07391 | 24342 ft | 431 kts | 61° |
| 2026-04-26 12:27 | -34.42563 | 150.10576 | 23624 ft | 428 kts | 61° |
| 2026-04-26 12:28 | -34.41165 | 150.13732 | 22914 ft | 422 kts | 61° |
| 2026-04-26 12:28 | -34.39779 | 150.16836 | 22263 ft | 417 kts | 61° |
| 2026-04-26 12:28 | -34.38425 | 150.19867 | 21586 ft | 413 kts | 61° |
| 2026-04-26 12:28 | -34.37077 | 150.22911 | 20928 ft | 409 kts | 61° |
| 2026-04-26 12:29 | -34.35735 | 150.25936 | 20262 ft | 406 kts | 61° |
| 2026-04-26 12:29 | -34.34396 | 150.28938 | 19584 ft | 405 kts | 61° |
| 2026-04-26 12:29 | -34.31725 | 150.34905 | 18207 ft | 402 kts | 61° |
| 2026-04-26 12:30 | -34.30387 | 150.37863 | 17523 ft | 400 kts | 61° |
| 2026-04-26 12:30 | -34.29491 | 150.39851 | 17086 ft | 398 kts | 61° |
| 2026-04-26 12:30 | -34.28196 | 150.42741 | 16432 ft | 394 kts | 61° |
| 2026-04-26 12:31 | -34.25615 | 150.48535 | 15130 ft | 388 kts | 61° |
| 2026-04-26 12:31 | -34.24339 | 150.51387 | 14495 ft | 385 kts | 61° |
| 2026-04-26 12:31 | -34.23072 | 150.54217 | 13824 ft | 381 kts | 61° |
| 2026-04-26 12:31 | -34.21823 | 150.57014 | 13181 ft | 375 kts | 61° |
| 2026-04-26 12:32 | -34.20585 | 150.59764 | 12548 ft | 369 kts | 61° |
| 2026-04-26 12:32 | -34.19368 | 150.62462 | 11934 ft | 363 kts | 60° |
| 2026-04-26 12:32 | -34.16995 | 150.67735 | 10820 ft | 350 kts | 61° |
| 2026-04-26 12:33 | -34.15869 | 150.70255 | 10688 ft | 332 kts | 61° |
| 2026-04-26 12:33 | -34.14788 | 150.72645 | 10547 ft | 317 kts | 60° |
| 2026-04-26 12:33 | -34.13756 | 150.74934 | 10411 ft | 304 kts | 60° |
| 2026-04-26 12:33 | -34.12766 | 150.77134 | 10188 ft | 295 kts | 60° |
| 2026-04-26 12:34 | -34.11786 | 150.79302 | 9793 ft | 292 kts | 60° |
| 2026-04-26 12:34 | -34.10819 | 150.81448 | 9386 ft | 290 kts | 60° |
| 2026-04-26 12:34 | -34.09855 | 150.83585 | 8963 ft | 289 kts | 60° |
| 2026-04-26 12:34 | -34.08913 | 150.85675 | 8643 ft | 285 kts | 61° |
| 2026-04-26 12:35 | -34.07974 | 150.87769 | 8387 ft | 283 kts | 61° |
| 2026-04-26 12:35 | -34.07039 | 150.89848 | 8130 ft | 282 kts | 61° |
| 2026-04-26 12:35 | -34.06101 | 150.91920 | 7883 ft | 281 kts | 61° |
| 2026-04-26 12:35 | -34.05165 | 150.93984 | 7615 ft | 280 kts | 61° |
| 2026-04-26 12:36 | -34.04236 | 150.96042 | 7363 ft | 279 kts | 62° |
| 2026-04-26 12:36 | -34.03506 | 150.98195 | 7110 ft | 277 kts | 79° |
| 2026-04-26 12:36 | -34.03454 | 151.00495 | 6857 ft | 276 kts | 101° |
| 2026-04-26 12:36 | -34.04122 | 151.02638 | 6604 ft | 274 kts | 123° |
| 2026-04-26 12:37 | -34.05332 | 151.04393 | 6344 ft | 273 kts | 134° |
| 2026-04-26 12:37 | -34.06658 | 151.06038 | 6095 ft | 272 kts | 136° |
| 2026-04-26 12:37 | -34.08158 | 151.07397 | 5862 ft | 271 kts | 152° |
| 2026-04-26 12:37 | -34.09906 | 151.08220 | 5610 ft | 269 kts | 166° |
| 2026-04-26 12:38 | -34.11729 | 151.08703 | 5368 ft | 268 kts | 168° |
| 2026-04-26 12:38 | -34.13551 | 151.09161 | 5130 ft | 267 kts | 169° |
| 2026-04-26 12:38 | -34.15363 | 151.09630 | 4881 ft | 266 kts | 168° |
| 2026-04-26 12:38 | -34.17150 | 151.10088 | 4632 ft | 266 kts | 168° |
| 2026-04-26 12:39 | -34.18962 | 151.10550 | 4400 ft | 267 kts | 168° |
| 2026-04-26 12:39 | -34.20779 | 151.11014 | 4182 ft | 267 kts | 168° |
| 2026-04-26 12:39 | -34.22563 | 151.11652 | 4057 ft | 268 kts | 152° |
| 2026-04-26 12:39 | -34.23947 | 151.13132 | 3932 ft | 268 kts | 123° |
| 2026-04-26 12:40 | -34.24582 | 151.15215 | 3809 ft | 266 kts | 94° |
| 2026-04-26 12:40 | -34.24322 | 151.17394 | 3680 ft | 263 kts | 66° |
| 2026-04-26 12:40 | -34.23554 | 151.19404 | 3556 ft | 263 kts | 63° |
| 2026-04-26 12:40 | -34.22772 | 151.21392 | 3423 ft | 261 kts | 62° |
| 2026-04-26 12:41 | -34.21772 | 151.23184 | 3279 ft | 257 kts | 37° |
| 2026-04-26 12:41 | -34.20197 | 151.24121 | 3152 ft | 253 kts | 10° |
| 2026-04-26 12:41 | -34.18474 | 151.24059 | 3039 ft | 248 kts | 347° |
| 2026-04-26 12:41 | -34.16865 | 151.23494 | 2993 ft | 234 kts | 343° |
| 2026-04-26 12:42 | -34.15348 | 151.22979 | 2980 ft | 219 kts | 347° |
| 2026-04-26 12:42 | -34.13903 | 151.22592 | 2999 ft | 205 kts | 348° |
| 2026-04-26 12:42 | -34.12544 | 151.22251 | 2998 ft | 195 kts | 349° |
| 2026-04-26 12:42 | -34.11238 | 151.21917 | 2936 ft | 188 kts | 348° |
| 2026-04-26 12:43 | -34.10012 | 151.21598 | 2730 ft | 173 kts | 349° |
| 2026-04-26 12:43 | -34.08879 | 151.21302 | 2525 ft | 159 kts | 349° |
| 2026-04-26 12:43 | -34.07865 | 151.21038 | 2318 ft | 142 kts | 349° |
| 2026-04-26 12:43 | -34.06942 | 151.20798 | 2131 ft | 134 kts | 350° |
| 2026-04-26 12:44 | -34.06041 | 151.20564 | 1957 ft | 132 kts | 350° |
| 2026-04-26 12:44 | -34.05157 | 151.20334 | 1787 ft | 130 kts | 350° |
| 2026-04-26 12:44 | -34.04278 | 151.20106 | 1620 ft | 129 kts | 350° |
| 2026-04-26 12:44 | -34.03390 | 151.19875 | 1442 ft | 129 kts | 350° |
| 2026-04-26 12:45 | -34.02517 | 151.19648 | 1271 ft | 130 kts | 350° |
| 2026-04-26 12:45 | -34.01640 | 151.19420 | 1102 ft | 129 kts | 350° |
| 2026-04-26 12:45 | -34.00766 | 151.19190 | 930 ft | 128 kts | 349° |
| 2026-04-26 12:45 | -33.99888 | 151.18969 | 755 ft | 129 kts | 350° |
| 2026-04-26 12:46 | -33.99007 | 151.18732 | 591 ft | 132 kts | 348° |
| 2026-04-26 12:46 | -33.98117 | 151.18520 | 427 ft | 128 kts | 347° |
| 2026-04-26 12:46 | -33.97232 | 151.18279 | 230 ft | 130 kts | 344° |
| 2026-04-26 12:46 | -33.96354 | 151.18048 | 56 ft | 128 kts | 344° |
| 2026-04-26 12:47 | -33.95561 | 151.17839 | 29 ft | 97 kts | 346° |
| 2026-04-26 12:47 | -33.95068 | 151.17707 | 27 ft | 53 kts | 348° |
| 2026-04-26 12:47 | -33.94814 | 151.17654 | 29 ft | 27 kts | 352° |
| 2026-04-26 12:47 | -33.94636 | 151.17652 | 29 ft | 25 kts | 9° |
| 2026-04-26 12:48 | -33.94472 | 151.17700 | 30 ft | 24 kts | 19° |
| 2026-04-26 12:48 | -33.94311 | 151.17729 | 30 ft | 24 kts | 349° |
| 2026-04-26 12:48 | -33.94155 | 151.17681 | 29 ft | 21 kts | 345° |
| 2026-04-26 12:48 | -33.94018 | 151.17641 | 28 ft | 21 kts | 347° |
| 2026-04-26 12:49 | -33.93879 | 151.17604 | 29 ft | 21 kts | 347° |
| 2026-04-26 12:49 | -33.93738 | 151.17569 | 29 ft | 21 kts | 350° |
| 2026-04-26 12:49 | -33.93643 | 151.17609 | 30 ft | 14 kts | 63° |
| 2026-04-26 12:49 | -33.93646 | 151.17697 | 30 ft | 11 kts | 99° |
| 2026-04-26 12:50 | -33.93656 | 151.17768 | 30 ft | 6 kts | 99° |
| 2026-04-26 12:50 | -33.93639 | 151.17818 | 30 ft | 6 kts | 26° |
| 2026-04-26 12:50 | -33.93607 | 151.17821 | 30 ft | 6 kts | 7° |
| 2026-04-26 12:50 | -33.93555 | 151.17831 | 30 ft | 5 kts | 9° |
| 2026-04-26 12:51 | -33.93533 | 151.17815 | 30 ft | 6 kts | 288° |
| 2026-04-26 12:51 | -33.93526 | 151.17777 | 30 ft | 2 kts | 281° |
| 2026-04-26 12:51 | -33.93524 | 151.17765 | 30 ft | 0 kts | 278° |